createdAt,value
2023-05-12T00:01:00.213Z,7.43
2023-05-12T00:06:06.169Z,7.28
2023-05-12T00:11:09.184Z,8.07
2023-05-12T00:16:13.943Z,6.40
2023-05-12T00:21:16.950Z,7.95
2023-05-12T00:26:19.927Z,7.35
2023-05-12T00:31:23.324Z,7.45
2023-05-12T00:36:27.337Z,7.20
2023-05-12T00:41:30.272Z,7.15
2023-05-12T00:46:33.539Z,6.68
2023-05-12T00:51:37.509Z,7.30
2023-05-12T00:56:41.355Z,6.53
2023-05-12T01:01:45.815Z,7.25
2023-05-12T01:06:52.158Z,6.45
2023-05-12T01:11:55.098Z,6.88
2023-05-12T01:17:00.700Z,6.82
2023-05-12T01:22:06.188Z,7.63
2023-05-12T01:27:09.801Z,7.32
2023-05-12T01:32:13.357Z,6.78
2023-05-12T01:37:16.908Z,6.90
2023-05-12T01:42:20.431Z,7.80
2023-05-12T01:47:24.369Z,7.07
2023-05-12T01:52:34.597Z,7.20
2023-05-12T01:57:38.157Z,6.75
2023-05-12T02:02:43.092Z,7.30
2023-05-12T02:07:48.722Z,7.20
2023-05-12T02:12:51.960Z,8.30
2023-05-12T02:17:55.684Z,7.75
2023-05-12T02:23:01.337Z,8.05
2023-05-12T02:28:11.068Z,7.95
2023-05-12T02:33:16.560Z,7.63
2023-05-12T02:38:19.671Z,8.50
2023-05-12T02:43:22.807Z,9.13
2023-05-12T02:48:26.133Z,8.70
2023-05-12T02:53:29.588Z,8.85
2023-05-12T02:58:32.652Z,8.43
2023-05-12T03:03:35.785Z,8.55
2023-05-12T03:08:38.899Z,8.57
2023-05-12T03:13:41.896Z,9.07
2023-05-12T03:18:44.892Z,8.95
2023-05-12T03:23:48.044Z,9.48
2023-05-12T03:28:51.060Z,10.05
2023-05-12T03:33:54.064Z,8.85
2023-05-12T03:38:57.513Z,9.38
2023-05-12T03:44:00.616Z,9.13
2023-05-12T03:49:03.835Z,9.68
2023-05-12T03:54:07.388Z,7.72
2023-05-12T03:59:12.321Z,7.90
2023-05-12T04:04:16.196Z,9.52
2023-05-12T04:09:19.234Z,9.40
2023-05-12T04:14:31.770Z,10.00
2023-05-12T04:19:42.546Z,9.07
2023-05-12T04:24:45.574Z,9.15
2023-05-12T04:29:48.812Z,9.75
2023-05-12T04:34:52.048Z,8.30
2023-05-12T04:39:55.185Z,9.32
2023-05-12T04:44:58.629Z,9.75
2023-05-12T04:50:01.800Z,9.60
2023-05-12T05:00:12.143Z,9.60
2023-05-12T05:05:15.969Z,9.98
2023-05-12T05:10:19.163Z,8.80
2023-05-12T05:15:26.427Z,8.35
2023-05-12T05:20:29.711Z,10.25
2023-05-12T05:25:33.408Z,9.80
2023-05-12T05:30:36.756Z,7.78
2023-05-12T05:35:42.780Z,8.45
2023-05-12T05:40:53.836Z,8.13
2023-05-12T05:45:59.343Z,8.20
2023-05-12T05:51:02.759Z,7.13
2023-05-12T05:56:06.221Z,7.10
2023-05-12T06:01:09.360Z,8.07
2023-05-12T06:06:13.548Z,7.80
2023-05-12T06:11:17.913Z,8.80
2023-05-12T06:16:21.155Z,7.05
2023-05-12T06:21:24.477Z,8.13
2023-05-12T06:26:28.238Z,7.35
2023-05-12T06:31:32.469Z,8.48
2023-05-12T06:36:35.501Z,7.38
2023-05-12T06:41:38.506Z,7.68
2023-05-12T06:46:41.562Z,7.72
2023-05-12T06:51:44.645Z,6.45
2023-05-12T06:56:47.784Z,6.65
2023-05-12T07:01:50.839Z,5.93
2023-05-12T07:06:54.098Z,4.93
2023-05-12T07:11:57.046Z,5.85
2023-05-12T07:17:00.104Z,5.43
2023-05-12T07:22:03.172Z,5.80
2023-05-12T07:27:06.590Z,5.10
2023-05-12T07:32:09.661Z,5.53
2023-05-12T07:37:12.678Z,5.47
2023-05-12T07:42:15.818Z,5.68
2023-05-12T07:47:18.836Z,5.20
2023-05-12T07:52:22.103Z,4.85
2023-05-12T07:57:25.464Z,4.57
2023-05-12T08:02:28.670Z,4.15
2023-05-12T08:07:35.188Z,4.38
2023-05-12T08:12:38.344Z,3.58
2023-05-12T08:17:41.423Z,3.78
2023-05-12T08:22:44.974Z,4.10
2023-05-12T08:27:47.974Z,3.55
2023-05-12T08:32:51.053Z,4.20
2023-05-12T08:37:54.523Z,3.60
2023-05-12T08:43:06.330Z,3.45
2023-05-12T08:48:11.136Z,3.28
2023-05-12T08:53:16.751Z,2.80
2023-05-12T08:58:25.294Z,2.63
2023-05-12T09:03:37.168Z,3.03
2023-05-12T09:08:41.589Z,3.45
2023-05-12T09:14:00.662Z,3.10
2023-05-12T09:19:06.669Z,2.67
2023-05-12T09:24:10.303Z,2.63
2023-05-12T09:29:20.817Z,2.65
2023-05-12T09:34:38.905Z,2.95
2023-05-12T09:39:42.340Z,2.90
2023-05-12T09:44:47.284Z,3.00
2023-05-12T09:49:52.657Z,3.35
2023-05-12T09:54:55.710Z,2.50
2023-05-12T09:59:59.039Z,2.70
2023-05-12T10:05:07.153Z,2.35
2023-05-12T10:10:14.815Z,2.78
2023-05-12T10:15:18.901Z,2.80
2023-05-12T10:20:22.139Z,2.72
2023-05-12T10:25:25.362Z,2.95
2023-05-12T10:30:28.624Z,2.50
2023-05-12T10:35:36.723Z,2.80
2023-05-12T10:41:01.483Z,2.60
2023-05-12T10:46:09.320Z,3.30
2023-05-12T10:51:12.358Z,3.42
2023-05-12T10:56:23.865Z,3.58
2023-05-12T11:01:27.606Z,3.28
2023-05-12T11:06:31.390Z,3.30
2023-05-12T11:11:36.382Z,2.90
2023-05-12T11:16:46.001Z,2.67
2023-05-12T11:21:49.130Z,3.10
2023-05-12T11:26:52.535Z,3.00
2023-05-12T11:31:55.963Z,2.95
2023-05-12T11:36:58.926Z,2.85
2023-05-12T11:42:12.960Z,3.05
2023-05-12T11:47:18.107Z,2.83
2023-05-12T11:52:23.346Z,2.42
2023-05-12T11:57:27.939Z,2.35
2023-05-12T12:02:31.813Z,2.47
2023-05-12T12:07:36.822Z,2.55
2023-05-12T12:12:42.602Z,2.63
2023-05-12T12:17:45.736Z,3.08
2023-05-12T12:22:49.973Z,3.50
2023-05-12T12:27:53.544Z,4.30
2023-05-12T12:32:56.783Z,4.32
2023-05-12T12:37:59.890Z,5.03
2023-05-12T12:43:02.948Z,4.95
2023-05-12T12:48:07.059Z,5.97
2023-05-12T12:53:10.205Z,5.63
2023-05-12T12:58:15.926Z,6.80
2023-05-12T13:08:24.727Z,6.55
2023-05-12T13:13:27.748Z,6.03
2023-05-12T13:18:30.867Z,6.50
2023-05-12T13:23:34.027Z,7.07
2023-05-12T13:28:37.558Z,6.60
2023-05-12T13:33:40.683Z,5.63
2023-05-12T13:38:43.683Z,5.18
2023-05-12T13:43:49.906Z,4.32
2023-05-12T13:48:53.140Z,4.18
2023-05-12T13:53:56.382Z,4.47
2023-05-12T13:58:59.363Z,4.63
2023-05-12T14:04:02.426Z,4.78
2023-05-12T14:09:08.517Z,6.32
2023-05-12T14:14:14.245Z,5.80
2023-05-12T14:19:17.368Z,6.32
2023-05-12T14:24:20.522Z,7.18
2023-05-12T14:29:23.607Z,6.82
2023-05-12T14:34:26.721Z,6.90
2023-05-12T14:39:29.695Z,6.95
2023-05-12T14:44:32.640Z,7.05
2023-05-12T14:49:35.681Z,6.43
2023-05-12T14:54:38.746Z,6.85
2023-05-12T14:59:41.721Z,5.63
2023-05-12T15:04:44.694Z,6.88
2023-05-12T15:09:47.643Z,6.15
2023-05-12T15:14:51.072Z,6.22
2023-05-12T15:19:54.559Z,6.43
2023-05-12T15:25:00.695Z,6.05
2023-05-12T15:30:04.079Z,6.53
2023-05-12T15:35:09.634Z,7.20
2023-05-12T15:40:13.931Z,6.05
2023-05-12T15:45:16.899Z,4.88
2023-05-12T15:50:23.198Z,4.10
2023-05-12T15:55:26.663Z,3.45
2023-05-12T16:00:29.737Z,3.20
2023-05-12T16:05:34.417Z,3.28
2023-05-12T16:10:37.386Z,4.15
2023-05-12T16:15:40.458Z,3.85
2023-05-12T16:20:44.852Z,3.60
2023-05-12T16:25:47.874Z,3.70
2023-05-12T16:30:50.889Z,3.40
2023-05-12T16:35:54.002Z,3.15
2023-05-12T16:40:57.016Z,2.78
2023-05-12T16:46:01.704Z,4.05
2023-05-12T16:51:07.027Z,3.28
2023-05-12T16:56:10.549Z,3.40
2023-05-12T17:01:13.801Z,2.80
2023-05-12T17:06:16.768Z,3.35
2023-05-12T17:11:19.801Z,3.35
2023-05-12T17:16:23.229Z,4.30
2023-05-12T17:21:26.787Z,4.03
2023-05-12T17:26:29.900Z,4.38
2023-05-12T17:31:32.999Z,4.35
2023-05-12T17:36:36.104Z,4.40
2023-05-12T17:41:39.120Z,3.83
2023-05-12T17:46:42.170Z,3.67
2023-05-12T17:51:45.286Z,3.83
2023-05-12T17:56:48.323Z,3.92
2023-05-12T18:01:52.222Z,4.03
2023-05-12T18:06:55.462Z,3.72
2023-05-12T18:11:58.404Z,3.80
2023-05-12T18:17:01.478Z,3.47
2023-05-12T18:22:04.623Z,4.68
2023-05-12T18:27:07.753Z,3.65
2023-05-12T18:32:11.125Z,3.55
2023-05-12T18:37:15.822Z,4.03
2023-05-12T18:42:18.825Z,4.65
2023-05-12T18:47:21.916Z,5.38
2023-05-12T18:52:24.910Z,4.35
2023-05-12T18:57:28.037Z,5.35
2023-05-12T19:02:31.007Z,6.82
2023-05-12T19:07:33.983Z,5.15
2023-05-12T19:12:37.068Z,5.88
2023-05-12T19:17:40.109Z,5.50
2023-05-12T19:22:44.267Z,7.80
2023-05-12T19:27:47.244Z,6.13
2023-05-12T19:32:50.375Z,6.00
2023-05-12T19:37:53.365Z,6.07
2023-05-12T19:42:56.877Z,7.43
2023-05-12T19:47:59.952Z,6.78
2023-05-12T19:53:03.004Z,7.40
2023-05-12T19:58:06.136Z,7.63
2023-05-12T20:03:09.302Z,7.22
2023-05-12T20:08:12.808Z,8.07
2023-05-12T20:13:15.905Z,7.80
2023-05-12T20:18:19.152Z,7.95
2023-05-12T20:23:22.164Z,9.15
2023-05-12T20:28:25.360Z,9.55
2023-05-12T20:33:28.338Z,7.72
2023-05-12T20:38:31.293Z,8.55
2023-05-12T20:43:34.395Z,9.07
2023-05-12T20:48:37.460Z,9.55
2023-05-12T20:53:40.538Z,10.25
2023-05-12T20:58:43.626Z,10.85
2023-05-12T21:03:46.660Z,11.60
2023-05-12T21:08:49.819Z,11.02
2023-05-12T21:13:52.894Z,11.80
2023-05-12T21:18:56.345Z,10.93
2023-05-12T21:23:59.354Z,10.45
2023-05-12T21:29:03.719Z,11.23
2023-05-12T21:34:07.477Z,11.48
2023-05-12T21:39:10.463Z,8.95
2023-05-12T21:44:13.461Z,8.02
2023-05-12T21:49:16.488Z,7.80
2023-05-12T21:54:19.428Z,8.05
2023-05-12T21:59:22.409Z,7.30
2023-05-12T22:04:25.389Z,9.07
2023-05-12T22:09:30.410Z,7.25
2023-05-12T22:14:34.100Z,7.82
2023-05-12T22:19:37.280Z,9.38
2023-05-12T22:24:40.332Z,7.88
2023-05-12T22:29:43.279Z,9.80
2023-05-12T22:34:46.251Z,8.85
2023-05-12T22:39:49.237Z,8.82
2023-05-12T22:44:52.188Z,9.32
2023-05-12T22:49:55.215Z,7.97
2023-05-12T22:54:58.154Z,7.53
2023-05-12T23:00:01.120Z,7.57
2023-05-12T23:05:04.496Z,6.10
2023-05-12T23:10:08.026Z,5.60
2023-05-12T23:15:11.374Z,5.75
2023-05-12T23:20:14.366Z,5.70
2023-05-12T23:25:19.180Z,5.72
2023-05-12T23:30:22.331Z,5.55
2023-05-12T23:35:26.497Z,6.25
2023-05-12T23:40:29.479Z,5.55
2023-05-12T23:45:33.369Z,5.43
2023-05-12T23:50:36.381Z,5.30
2023-05-12T23:55:39.369Z,5.32
